Krasnoufimsk, Russia
Current Conditions -  °F | °C
As of 2:30 PM on Thursday 27 Nov 2014 (Local Time) from USSS Reporting Station
Clear Clear  
Wind Chill:   Ceiling: Unl
Heat Index: 12°   Visibility: 6mi
Dew Point:   Wind: 9mph
Humidity: 67%   Direction: 320°NW
Pressure: 30.42"   Gusts: NA
Location:  56.6°N, 57.76°E
Report Text: USSS 270930Z 32004MPS CAVOK M11/M16 Q1030 76810350 NOSIG RMKQFE752
Loading
Personal Weather Stations






























Interactive Weather Map New forecast layout! Learn more

10-Day Weather Forecast

Advertisements
Track Severe Weather on mobile